sensor_id;sensor_type;location;lat;lon;timestamp;P1;durP1;ratioP1;P2;durP2;ratioP2
2416;SDS011;1219;48.736;9.330;2023-07-22T00:02:13;3.67;;;3.33;;
2416;SDS011;1219;48.736;9.330;2023-07-22T00:04:38;6.40;;;3.90;;
2416;SDS011;1219;48.736;9.330;2023-07-22T00:07:05;4.07;;;3.77;;
2416;SDS011;1219;48.736;9.330;2023-07-22T00:09:33;3.70;;;3.20;;
2416;SDS011;1219;48.736;9.330;2023-07-22T00:12:00;3.53;;;3.23;;
2416;SDS011;1219;48.736;9.330;2023-07-22T00:14:26;4.53;;;4.07;;
2416;SDS011;1219;48.736;9.330;2023-07-22T00:16:52;3.97;;;3.63;;
2416;SDS011;1219;48.736;9.330;2023-07-22T00:19:18;3.97;;;3.57;;
2416;SDS011;1219;48.736;9.330;2023-07-22T00:21:43;3.80;;;3.50;;
2416;SDS011;1219;48.736;9.330;2023-07-22T00:24:09;3.37;;;3.07;;
2416;SDS011;1219;48.736;9.330;2023-07-22T00:26:35;3.87;;;3.57;;
2416;SDS011;1219;48.736;9.330;2023-07-22T00:29:01;3.57;;;3.23;;
2416;SDS011;1219;48.736;9.330;2023-07-22T00:31:28;4.03;;;3.73;;
2416;SDS011;1219;48.736;9.330;2023-07-22T00:33:54;3.40;;;3.10;;
2416;SDS011;1219;48.736;9.330;2023-07-22T00:36:20;3.60;;;3.30;;
2416;SDS011;1219;48.736;9.330;2023-07-22T00:38:45;3.70;;;3.17;;
2416;SDS011;1219;48.736;9.330;2023-07-22T00:41:11;3.40;;;3.10;;
2416;SDS011;1219;48.736;9.330;2023-07-22T00:43:37;3.10;;;2.90;;
2416;SDS011;1219;48.736;9.330;2023-07-22T00:46:04;4.50;;;2.90;;
2416;SDS011;1219;48.736;9.330;2023-07-22T00:48:30;4.50;;;3.57;;
2416;SDS011;1219;48.736;9.330;2023-07-22T00:50:56;4.30;;;3.90;;
2416;SDS011;1219;48.736;9.330;2023-07-22T00:53:23;3.70;;;3.37;;
2416;SDS011;1219;48.736;9.330;2023-07-22T00:55:49;5.07;;;3.40;;
2416;SDS011;1219;48.736;9.330;2023-07-22T00:58:15;4.13;;;3.73;;
2416;SDS011;1219;48.736;9.330;2023-07-22T01:00:41;3.60;;;3.30;;
2416;SDS011;1219;48.736;9.330;2023-07-22T01:03:07;3.90;;;3.50;;
2416;SDS011;1219;48.736;9.330;2023-07-22T01:05:33;3.70;;;3.27;;
2416;SDS011;1219;48.736;9.330;2023-07-22T01:08:00;3.83;;;3.40;;
2416;SDS011;1219;48.736;9.330;2023-07-22T01:10:26;4.00;;;3.70;;
2416;SDS011;1219;48.736;9.330;2023-07-22T01:12:52;3.87;;;3.57;;
2416;SDS011;1219;48.736;9.330;2023-07-22T01:15:18;3.90;;;3.20;;
2416;SDS011;1219;48.736;9.330;2023-07-22T01:17:44;5.13;;;3.83;;
2416;SDS011;1219;48.736;9.330;2023-07-22T01:20:10;5.33;;;3.20;;
2416;SDS011;1219;48.736;9.330;2023-07-22T01:22:36;3.97;;;3.67;;
2416;SDS011;1219;48.736;9.330;2023-07-22T01:25:04;8.17;;;3.57;;
2416;SDS011;1219;48.736;9.330;2023-07-22T01:27:30;6.90;;;4.30;;
2416;SDS011;1219;48.736;9.330;2023-07-22T01:29:56;5.37;;;4.50;;
2416;SDS011;1219;48.736;9.330;2023-07-22T01:32:22;4.10;;;3.80;;
2416;SDS011;1219;48.736;9.330;2023-07-22T01:34:48;4.17;;;3.60;;
2416;SDS011;1219;48.736;9.330;2023-07-22T01:37:14;4.70;;;4.30;;
2416;SDS011;1219;48.736;9.330;2023-07-22T01:39:39;4.27;;;3.97;;
2416;SDS011;1219;48.736;9.330;2023-07-22T01:42:06;4.00;;;3.70;;
2416;SDS011;1219;48.736;9.330;2023-07-22T01:44:33;3.67;;;3.37;;
2416;SDS011;1219;48.736;9.330;2023-07-22T01:47:01;3.83;;;3.40;;
2416;SDS011;1219;48.736;9.330;2023-07-22T01:49:27;3.93;;;3.50;;
2416;SDS011;1219;48.736;9.330;2023-07-22T01:51:53;3.73;;;3.47;;
2416;SDS011;1219;48.736;9.330;2023-07-22T01:54:19;10.93;;;3.70;;
2416;SDS011;1219;48.736;9.330;2023-07-22T01:56:45;3.70;;;3.50;;
2416;SDS011;1219;48.736;9.330;2023-07-22T01:59:11;3.50;;;3.30;;
2416;SDS011;1219;48.736;9.330;2023-07-22T02:01:37;3.67;;;3.37;;
2416;SDS011;1219;48.736;9.330;2023-07-22T02:04:03;4.17;;;3.70;;
2416;SDS011;1219;48.736;9.330;2023-07-22T02:06:32;3.40;;;3.10;;
2416;SDS011;1219;48.736;9.330;2023-07-22T02:08:59;5.23;;;3.80;;
2416;SDS011;1219;48.736;9.330;2023-07-22T02:11:32;4.40;;;3.87;;
2416;SDS011;1219;48.736;9.330;2023-07-22T02:13:58;3.93;;;3.63;;
2416;SDS011;1219;48.736;9.330;2023-07-22T02:16:24;5.87;;;3.80;;
2416;SDS011;1219;48.736;9.330;2023-07-22T02:18:50;4.37;;;4.00;;
2416;SDS011;1219;48.736;9.330;2023-07-22T02:21:16;5.00;;;3.87;;
2416;SDS011;1219;48.736;9.330;2023-07-22T02:23:42;3.80;;;3.50;;
2416;SDS011;1219;48.736;9.330;2023-07-22T02:26:08;4.10;;;3.80;;
2416;SDS011;1219;48.736;9.330;2023-07-22T02:28:34;3.23;;;3.03;;
2416;SDS011;1219;48.736;9.330;2023-07-22T02:31:01;4.53;;;4.13;;
2416;SDS011;1219;48.736;9.330;2023-07-22T02:33:27;3.57;;;3.37;;
2416;SDS011;1219;48.736;9.330;2023-07-22T02:35:53;3.93;;;3.63;;
2416;SDS011;1219;48.736;9.330;2023-07-22T02:38:19;4.27;;;3.87;;
2416;SDS011;1219;48.736;9.330;2023-07-22T02:40:45;3.90;;;3.37;;
2416;SDS011;1219;48.736;9.330;2023-07-22T02:43:11;3.93;;;3.63;;
2416;SDS011;1219;48.736;9.330;2023-07-22T02:45:37;3.47;;;3.20;;
2416;SDS011;1219;48.736;9.330;2023-07-22T02:48:03;3.80;;;3.50;;
2416;SDS011;1219;48.736;9.330;2023-07-22T02:50:30;4.00;;;3.03;;
2416;SDS011;1219;48.736;9.330;2023-07-22T02:52:56;3.87;;;3.57;;
2416;SDS011;1219;48.736;9.330;2023-07-22T02:55:22;3.57;;;3.37;;
2416;SDS011;1219;48.736;9.330;2023-07-22T02:57:48;3.83;;;3.33;;
2416;SDS011;1219;48.736;9.330;2023-07-22T03:00:14;4.07;;;3.77;;
2416;SDS011;1219;48.736;9.330;2023-07-22T03:02:50;3.80;;;3.50;;
2416;SDS011;1219;48.736;9.330;2023-07-22T03:05:17;8.07;;;3.87;;
2416;SDS011;1219;48.736;9.330;2023-07-22T03:07:43;5.53;;;3.90;;
2416;SDS011;1219;48.736;9.330;2023-07-22T03:10:09;3.87;;;3.57;;
2416;SDS011;1219;48.736;9.330;2023-07-22T03:12:35;3.70;;;3.40;;
2416;SDS011;1219;48.736;9.330;2023-07-22T03:15:02;4.70;;;4.30;;
2416;SDS011;1219;48.736;9.330;2023-07-22T03:17:29;5.00;;;3.87;;
2416;SDS011;1219;48.736;9.330;2023-07-22T03:19:55;4.37;;;3.97;;
2416;SDS011;1219;48.736;9.330;2023-07-22T03:22:21;4.23;;;3.80;;
2416;SDS011;1219;48.736;9.330;2023-07-22T03:24:47;4.47;;;3.60;;
2416;SDS011;1219;48.736;9.330;2023-07-22T03:27:13;3.70;;;3.40;;
2416;SDS011;1219;48.736;9.330;2023-07-22T03:29:42;4.00;;;3.70;;
2416;SDS011;1219;48.736;9.330;2023-07-22T03:32:08;4.50;;;3.27;;
2416;SDS011;1219;48.736;9.330;2023-07-22T03:34:34;4.90;;;3.77;;
2416;SDS011;1219;48.736;9.330;2023-07-22T03:37:00;4.70;;;4.33;;
2416;SDS011;1219;48.736;9.330;2023-07-22T03:39:26;3.63;;;3.33;;
2416;SDS011;1219;48.736;9.330;2023-07-22T03:41:52;3.93;;;3.60;;
2416;SDS011;1219;48.736;9.330;2023-07-22T03:44:18;4.70;;;4.40;;
2416;SDS011;1219;48.736;9.330;2023-07-22T03:46:44;5.03;;;4.50;;
2416;SDS011;1219;48.736;9.330;2023-07-22T03:49:10;4.37;;;4.00;;
2416;SDS011;1219;48.736;9.330;2023-07-22T03:51:36;4.43;;;4.03;;
2416;SDS011;1219;48.736;9.330;2023-07-22T03:54:02;3.37;;;3.13;;
2416;SDS011;1219;48.736;9.330;2023-07-22T03:56:28;5.20;;;3.93;;
2416;SDS011;1219;48.736;9.330;2023-07-22T03:58:54;4.37;;;3.60;;
2416;SDS011;1219;48.736;9.330;2023-07-22T04:01:20;4.10;;;3.73;;
2416;SDS011;1219;48.736;9.330;2023-07-22T04:03:46;6.83;;;4.20;;
2416;SDS011;1219;48.736;9.330;2023-07-22T04:06:12;5.77;;;4.30;;
2416;SDS011;1219;48.736;9.330;2023-07-22T04:08:38;3.80;;;3.50;;
2416;SDS011;1219;48.736;9.330;2023-07-22T04:11:04;5.23;;;3.80;;
2416;SDS011;1219;48.736;9.330;2023-07-22T04:13:30;4.30;;;3.90;;
2416;SDS011;1219;48.736;9.330;2023-07-22T04:15:56;5.90;;;4.23;;
2416;SDS011;1219;48.736;9.330;2023-07-22T04:18:22;4.40;;;4.10;;
2416;SDS011;1219;48.736;9.330;2023-07-22T04:20:51;4.50;;;4.10;;
2416;SDS011;1219;48.736;9.330;2023-07-22T04:23:20;4.17;;;3.77;;
2416;SDS011;1219;48.736;9.330;2023-07-22T04:25:46;4.43;;;3.93;;
2416;SDS011;1219;48.736;9.330;2023-07-22T04:28:12;5.93;;;4.40;;
2416;SDS011;1219;48.736;9.330;2023-07-22T04:30:38;4.87;;;4.47;;
2416;SDS011;1219;48.736;9.330;2023-07-22T04:33:05;4.00;;;3.70;;
2416;SDS011;1219;48.736;9.330;2023-07-22T04:35:31;4.13;;;3.83;;
2416;SDS011;1219;48.736;9.330;2023-07-22T04:37:57;4.10;;;3.80;;
2416;SDS011;1219;48.736;9.330;2023-07-22T04:40:23;4.27;;;3.97;;
2416;SDS011;1219;48.736;9.330;2023-07-22T04:42:50;5.23;;;4.83;;
2416;SDS011;1219;48.736;9.330;2023-07-22T04:45:16;3.70;;;3.50;;
2416;SDS011;1219;48.736;9.330;2023-07-22T04:47:45;3.87;;;3.53;;
2416;SDS011;1219;48.736;9.330;2023-07-22T04:50:13;4.07;;;3.77;;
2416;SDS011;1219;48.736;9.330;2023-07-22T04:52:41;4.47;;;4.07;;
2416;SDS011;1219;48.736;9.330;2023-07-22T04:55:07;4.70;;;4.30;;
2416;SDS011;1219;48.736;9.330;2023-07-22T04:57:43;4.70;;;4.40;;
2416;SDS011;1219;48.736;9.330;2023-07-22T05:00:13;3.80;;;3.50;;
2416;SDS011;1219;48.736;9.330;2023-07-22T05:02:39;4.33;;;4.03;;
2416;SDS011;1219;48.736;9.330;2023-07-22T05:05:05;4.57;;;4.17;;
2416;SDS011;1219;48.736;9.330;2023-07-22T05:07:31;6.33;;;4.27;;
2416;SDS011;1219;48.736;9.330;2023-07-22T05:09:57;4.37;;;4.03;;
2416;SDS011;1219;48.736;9.330;2023-07-22T05:12:23;4.60;;;4.20;;
2416;SDS011;1219;48.736;9.330;2023-07-22T05:14:49;3.90;;;3.60;;
2416;SDS011;1219;48.736;9.330;2023-07-22T05:17:15;5.37;;;4.27;;
2416;SDS011;1219;48.736;9.330;2023-07-22T05:19:41;5.20;;;4.80;;
2416;SDS011;1219;48.736;9.330;2023-07-22T05:22:07;4.33;;;3.70;;
2416;SDS011;1219;48.736;9.330;2023-07-22T05:24:33;4.87;;;4.37;;
2416;SDS011;1219;48.736;9.330;2023-07-22T05:26:59;4.30;;;4.00;;
2416;SDS011;1219;48.736;9.330;2023-07-22T05:29:25;5.57;;;4.93;;
2416;SDS011;1219;48.736;9.330;2023-07-22T05:31:51;3.77;;;3.43;;
2416;SDS011;1219;48.736;9.330;2023-07-22T05:34:17;6.33;;;4.07;;
2416;SDS011;1219;48.736;9.330;2023-07-22T05:36:43;3.97;;;3.67;;
2416;SDS011;1219;48.736;9.330;2023-07-22T05:39:09;5.87;;;3.83;;
2416;SDS011;1219;48.736;9.330;2023-07-22T05:41:34;5.60;;;4.40;;
2416;SDS011;1219;48.736;9.330;2023-07-22T05:44:01;5.63;;;4.50;;
2416;SDS011;1219;48.736;9.330;2023-07-22T05:46:27;5.50;;;4.40;;
2416;SDS011;1219;48.736;9.330;2023-07-22T05:48:53;4.20;;;3.80;;
2416;SDS011;1219;48.736;9.330;2023-07-22T05:51:19;4.20;;;3.90;;
2416;SDS011;1219;48.736;9.330;2023-07-22T05:53:45;4.20;;;3.80;;
2416;SDS011;1219;48.736;9.330;2023-07-22T05:56:10;4.53;;;4.13;;
2416;SDS011;1219;48.736;9.330;2023-07-22T05:58:36;4.33;;;3.93;;
2416;SDS011;1219;48.736;9.330;2023-07-22T06:01:02;4.23;;;3.80;;
2416;SDS011;1219;48.736;9.330;2023-07-22T06:03:28;4.90;;;4.30;;
2416;SDS011;1219;48.736;9.330;2023-07-22T06:05:54;3.97;;;3.77;;
2416;SDS011;1219;48.736;9.330;2023-07-22T06:08:20;3.97;;;3.63;;
2416;SDS011;1219;48.736;9.330;2023-07-22T06:10:46;4.03;;;3.67;;
2416;SDS011;1219;48.736;9.330;2023-07-22T06:13:12;5.40;;;3.73;;
2416;SDS011;1219;48.736;9.330;2023-07-22T06:15:38;4.63;;;3.90;;
2416;SDS011;1219;48.736;9.330;2023-07-22T06:18:04;5.30;;;3.80;;
2416;SDS011;1219;48.736;9.330;2023-07-22T06:20:34;3.67;;;3.37;;
2416;SDS011;1219;48.736;9.330;2023-07-22T06:23:01;4.43;;;4.10;;
2416;SDS011;1219;48.736;9.330;2023-07-22T06:25:27;4.17;;;3.77;;
2416;SDS011;1219;48.736;9.330;2023-07-22T06:27:53;3.47;;;3.17;;
2416;SDS011;1219;48.736;9.330;2023-07-22T06:30:19;5.00;;;3.80;;
2416;SDS011;1219;48.736;9.330;2023-07-22T06:32:45;3.80;;;3.20;;
2416;SDS011;1219;48.736;9.330;2023-07-22T06:35:11;4.50;;;3.83;;
2416;SDS011;1219;48.736;9.330;2023-07-22T06:37:37;3.53;;;2.97;;
2416;SDS011;1219;48.736;9.330;2023-07-22T06:40:03;3.83;;;3.50;;
2416;SDS011;1219;48.736;9.330;2023-07-22T06:42:29;3.30;;;3.00;;
2416;SDS011;1219;48.736;9.330;2023-07-22T06:44:55;4.33;;;3.93;;
2416;SDS011;1219;48.736;9.330;2023-07-22T06:47:21;4.17;;;3.87;;
2416;SDS011;1219;48.736;9.330;2023-07-22T06:49:47;3.00;;;2.80;;
2416;SDS011;1219;48.736;9.330;2023-07-22T06:52:13;3.60;;;3.30;;
2416;SDS011;1219;48.736;9.330;2023-07-22T06:54:39;4.03;;;3.17;;
2416;SDS011;1219;48.736;9.330;2023-07-22T06:57:05;2.97;;;2.67;;
2416;SDS011;1219;48.736;9.330;2023-07-22T06:59:32;3.47;;;3.17;;
2416;SDS011;1219;48.736;9.330;2023-07-22T07:01:58;3.67;;;3.37;;
2416;SDS011;1219;48.736;9.330;2023-07-22T07:04:24;3.90;;;3.60;;
2416;SDS011;1219;48.736;9.330;2023-07-22T07:06:50;3.23;;;3.00;;
2416;SDS011;1219;48.736;9.330;2023-07-22T07:09:16;3.40;;;3.20;;
2416;SDS011;1219;48.736;9.330;2023-07-22T07:11:42;3.03;;;2.50;;
2416;SDS011;1219;48.736;9.330;2023-07-22T07:14:08;3.43;;;3.13;;
2416;SDS011;1219;48.736;9.330;2023-07-22T07:16:34;4.33;;;3.10;;
2416;SDS011;1219;48.736;9.330;2023-07-22T07:19:00;9.50;;;2.90;;
2416;SDS011;1219;48.736;9.330;2023-07-22T07:21:26;3.67;;;3.13;;
2416;SDS011;1219;48.736;9.330;2023-07-22T07:23:53;3.30;;;3.10;;
2416;SDS011;1219;48.736;9.330;2023-07-22T07:26:19;3.20;;;3.00;;
2416;SDS011;1219;48.736;9.330;2023-07-22T07:28:45;2.93;;;2.63;;
2416;SDS011;1219;48.736;9.330;2023-07-22T07:31:11;3.80;;;2.93;;
2416;SDS011;1219;48.736;9.330;2023-07-22T07:33:37;5.23;;;2.70;;
2416;SDS011;1219;48.736;9.330;2023-07-22T07:36:03;5.20;;;2.83;;
2416;SDS011;1219;48.736;9.330;2023-07-22T07:38:29;3.20;;;3.00;;
2416;SDS011;1219;48.736;9.330;2023-07-22T07:43:24;3.87;;;3.57;;
2416;SDS011;1219;48.736;9.330;2023-07-22T07:45:50;2.53;;;2.33;;
2416;SDS011;1219;48.736;9.330;2023-07-22T07:48:16;3.27;;;3.07;;
2416;SDS011;1219;48.736;9.330;2023-07-22T07:50:43;2.60;;;2.40;;
2416;SDS011;1219;48.736;9.330;2023-07-22T07:53:08;3.73;;;3.23;;
2416;SDS011;1219;48.736;9.330;2023-07-22T07:55:34;2.80;;;2.60;;
2416;SDS011;1219;48.736;9.330;2023-07-22T07:58:00;3.40;;;2.60;;
2416;SDS011;1219;48.736;9.330;2023-07-22T08:00:26;5.67;;;3.20;;
2416;SDS011;1219;48.736;9.330;2023-07-22T08:02:52;2.80;;;2.50;;
2416;SDS011;1219;48.736;9.330;2023-07-22T08:05:18;3.00;;;2.80;;
2416;SDS011;1219;48.736;9.330;2023-07-22T08:07:44;2.70;;;2.40;;
2416;SDS011;1219;48.736;9.330;2023-07-22T08:10:10;3.13;;;2.93;;
2416;SDS011;1219;48.736;9.330;2023-07-22T08:12:36;4.87;;;2.73;;
2416;SDS011;1219;48.736;9.330;2023-07-22T08:15:02;3.33;;;2.70;;
2416;SDS011;1219;48.736;9.330;2023-07-22T08:17:28;3.23;;;2.80;;
2416;SDS011;1219;48.736;9.330;2023-07-22T08:19:54;2.70;;;2.50;;
2416;SDS011;1219;48.736;9.330;2023-07-22T08:22:20;2.83;;;2.63;;
2416;SDS011;1219;48.736;9.330;2023-07-22T08:24:46;3.63;;;2.80;;
2416;SDS011;1219;48.736;9.330;2023-07-22T08:27:12;2.80;;;2.60;;
2416;SDS011;1219;48.736;9.330;2023-07-22T08:29:38;5.00;;;2.30;;
2416;SDS011;1219;48.736;9.330;2023-07-22T08:32:04;10.10;;;4.80;;
2416;SDS011;1219;48.736;9.330;2023-07-22T08:34:30;2.77;;;2.50;;
2416;SDS011;1219;48.736;9.330;2023-07-22T08:36:56;3.10;;;2.80;;
2416;SDS011;1219;48.736;9.330;2023-07-22T08:39:22;3.07;;;2.77;;
2416;SDS011;1219;48.736;9.330;2023-07-22T08:41:48;2.30;;;2.20;;
2416;SDS011;1219;48.736;9.330;2023-07-22T08:44:20;3.43;;;3.00;;
2416;SDS011;1219;48.736;9.330;2023-07-22T08:46:47;2.77;;;2.47;;
2416;SDS011;1219;48.736;9.330;2023-07-22T08:49:15;3.20;;;2.60;;
2416;SDS011;1219;48.736;9.330;2023-07-22T08:51:41;2.70;;;2.50;;
2416;SDS011;1219;48.736;9.330;2023-07-22T08:54:08;2.63;;;2.43;;
2416;SDS011;1219;48.736;9.330;2023-07-22T08:56:34;2.73;;;2.43;;
2416;SDS011;1219;48.736;9.330;2023-07-22T08:59:00;2.43;;;1.87;;
2416;SDS011;1219;48.736;9.330;2023-07-22T09:01:27;2.37;;;1.70;;
2416;SDS011;1219;48.736;9.330;2023-07-22T09:03:53;1.90;;;1.80;;
2416;SDS011;1219;48.736;9.330;2023-07-22T09:06:21;2.10;;;2.00;;
2416;SDS011;1219;48.736;9.330;2023-07-22T09:08:47;1.90;;;1.80;;
2416;SDS011;1219;48.736;9.330;2023-07-22T09:11:14;3.63;;;2.00;;
2416;SDS011;1219;48.736;9.330;2023-07-22T09:13:41;3.40;;;1.80;;
2416;SDS011;1219;48.736;9.330;2023-07-22T09:16:10;2.53;;;1.70;;
2416;SDS011;1219;48.736;9.330;2023-07-22T09:18:37;2.37;;;1.80;;
2416;SDS011;1219;48.736;9.330;2023-07-22T09:21:03;1.87;;;1.77;;
2416;SDS011;1219;48.736;9.330;2023-07-22T09:23:35;1.87;;;1.77;;
2416;SDS011;1219;48.736;9.330;2023-07-22T09:26:08;2.80;;;1.70;;
2416;SDS011;1219;48.736;9.330;2023-07-22T09:28:54;2.43;;;2.23;;
2416;SDS011;1219;48.736;9.330;2023-07-22T09:31:21;2.70;;;1.70;;
2416;SDS011;1219;48.736;9.330;2023-07-22T09:33:47;1.90;;;1.80;;
2416;SDS011;1219;48.736;9.330;2023-07-22T09:36:13;2.20;;;2.03;;
2416;SDS011;1219;48.736;9.330;2023-07-22T09:38:39;1.93;;;1.53;;
2416;SDS011;1219;48.736;9.330;2023-07-22T09:41:05;3.97;;;1.70;;
2416;SDS011;1219;48.736;9.330;2023-07-22T09:43:35;1.93;;;1.83;;
2416;SDS011;1219;48.736;9.330;2023-07-22T09:46:05;1.80;;;1.70;;
2416;SDS011;1219;48.736;9.330;2023-07-22T09:48:39;3.33;;;2.03;;
2416;SDS011;1219;48.736;9.330;2023-07-22T09:51:05;1.90;;;1.80;;
2416;SDS011;1219;48.736;9.330;2023-07-22T09:53:31;1.73;;;1.60;;
2416;SDS011;1219;48.736;9.330;2023-07-22T09:56:02;2.50;;;2.40;;
2416;SDS011;1219;48.736;9.330;2023-07-22T09:58:29;2.40;;;2.30;;
2416;SDS011;1219;48.736;9.330;2023-07-22T10:00:56;2.20;;;2.00;;
2416;SDS011;1219;48.736;9.330;2023-07-22T10:03:22;2.60;;;2.17;;
2416;SDS011;1219;48.736;9.330;2023-07-22T10:05:49;2.00;;;1.90;;
2416;SDS011;1219;48.736;9.330;2023-07-22T10:08:17;2.33;;;2.13;;
2416;SDS011;1219;48.736;9.330;2023-07-22T10:10:44;2.77;;;2.60;;
2416;SDS011;1219;48.736;9.330;2023-07-22T10:13:10;2.20;;;2.10;;
2416;SDS011;1219;48.736;9.330;2023-07-22T10:15:36;2.87;;;2.67;;
2416;SDS011;1219;48.736;9.330;2023-07-22T10:18:03;2.07;;;1.87;;
2416;SDS011;1219;48.736;9.330;2023-07-22T10:20:32;2.20;;;1.87;;
2416;SDS011;1219;48.736;9.330;2023-07-22T10:23:01;1.77;;;1.60;;
2416;SDS011;1219;48.736;9.330;2023-07-22T10:25:29;1.90;;;1.80;;
2416;SDS011;1219;48.736;9.330;2023-07-22T10:27:55;1.77;;;1.57;;
2416;SDS011;1219;48.736;9.330;2023-07-22T10:30:21;1.90;;;1.80;;
2416;SDS011;1219;48.736;9.330;2023-07-22T10:32:51;1.63;;;1.53;;
2416;SDS011;1219;48.736;9.330;2023-07-22T10:37:56;3.53;;;1.60;;
2416;SDS011;1219;48.736;9.330;2023-07-22T10:40:32;1.93;;;1.70;;
2416;SDS011;1219;48.736;9.330;2023-07-22T10:43:04;2.93;;;1.80;;
2416;SDS011;1219;48.736;9.330;2023-07-22T10:45:32;1.73;;;1.63;;
2416;SDS011;1219;48.736;9.330;2023-07-22T10:50:37;1.73;;;1.63;;
2416;SDS011;1219;48.736;9.330;2023-07-22T10:53:03;1.77;;;1.67;;
2416;SDS011;1219;48.736;9.330;2023-07-22T10:55:29;1.97;;;1.63;;
2416;SDS011;1219;48.736;9.330;2023-07-22T10:57:58;1.60;;;1.50;;
2416;SDS011;1219;48.736;9.330;2023-07-22T11:00:29;1.67;;;1.57;;
2416;SDS011;1219;48.736;9.330;2023-07-22T11:03:13;2.20;;;2.00;;
2416;SDS011;1219;48.736;9.330;2023-07-22T11:05:47;1.40;;;1.30;;
2416;SDS011;1219;48.736;9.330;2023-07-22T11:08:14;1.50;;;1.37;;
2416;SDS011;1219;48.736;9.330;2023-07-22T11:10:51;1.27;;;1.17;;
2416;SDS011;1219;48.736;9.330;2023-07-22T11:13:18;1.70;;;1.50;;
2416;SDS011;1219;48.736;9.330;2023-07-22T11:15:47;2.10;;;1.90;;
2416;SDS011;1219;48.736;9.330;2023-07-22T11:18:13;2.00;;;1.90;;
2416;SDS011;1219;48.736;9.330;2023-07-22T11:20:39;2.53;;;1.60;;
2416;SDS011;1219;48.736;9.330;2023-07-22T11:23:05;2.47;;;1.70;;
2416;SDS011;1219;48.736;9.330;2023-07-22T11:25:33;1.73;;;1.63;;
2416;SDS011;1219;48.736;9.330;2023-07-22T11:27:59;1.80;;;1.70;;
2416;SDS011;1219;48.736;9.330;2023-07-22T11:30:25;3.17;;;1.90;;
2416;SDS011;1219;48.736;9.330;2023-07-22T11:32:52;1.70;;;1.60;;
2416;SDS011;1219;48.736;9.330;2023-07-22T11:35:18;1.90;;;1.70;;
2416;SDS011;1219;48.736;9.330;2023-07-22T11:37:44;1.50;;;1.40;;
2416;SDS011;1219;48.736;9.330;2023-07-22T11:40:13;1.60;;;1.50;;
2416;SDS011;1219;48.736;9.330;2023-07-22T11:42:39;1.50;;;1.40;;
2416;SDS011;1219;48.736;9.330;2023-07-22T11:45:05;3.03;;;1.90;;
2416;SDS011;1219;48.736;9.330;2023-07-22T11:47:31;1.50;;;1.40;;
2416;SDS011;1219;48.736;9.330;2023-07-22T11:49:57;1.60;;;1.50;;
2416;SDS011;1219;48.736;9.330;2023-07-22T11:52:23;2.40;;;1.50;;
2416;SDS011;1219;48.736;9.330;2023-07-22T11:54:49;1.53;;;1.43;;
2416;SDS011;1219;48.736;9.330;2023-07-22T11:57:16;3.10;;;1.73;;
2416;SDS011;1219;48.736;9.330;2023-07-22T11:59:46;1.70;;;1.43;;
2416;SDS011;1219;48.736;9.330;2023-07-22T12:02:19;1.60;;;1.50;;
2416;SDS011;1219;48.736;9.330;2023-07-22T12:07:24;1.60;;;1.50;;
2416;SDS011;1219;48.736;9.330;2023-07-22T12:09:50;2.07;;;1.87;;
2416;SDS011;1219;48.736;9.330;2023-07-22T12:12:16;1.40;;;1.30;;
2416;SDS011;1219;48.736;9.330;2023-07-22T12:14:42;1.60;;;1.50;;
2416;SDS011;1219;48.736;9.330;2023-07-22T12:17:08;1.73;;;1.63;;
2416;SDS011;1219;48.736;9.330;2023-07-22T12:19:35;1.70;;;1.60;;
2416;SDS011;1219;48.736;9.330;2023-07-22T12:22:01;1.80;;;1.70;;
2416;SDS011;1219;48.736;9.330;2023-07-22T12:24:27;1.57;;;1.47;;
2416;SDS011;1219;48.736;9.330;2023-07-22T12:26:53;1.80;;;1.70;;
2416;SDS011;1219;48.736;9.330;2023-07-22T12:29:19;2.00;;;1.80;;
2416;SDS011;1219;48.736;9.330;2023-07-22T12:31:45;1.67;;;1.57;;
2416;SDS011;1219;48.736;9.330;2023-07-22T12:34:11;1.67;;;1.43;;
2416;SDS011;1219;48.736;9.330;2023-07-22T12:36:37;1.50;;;1.40;;
2416;SDS011;1219;48.736;9.330;2023-07-22T12:39:03;1.80;;;1.70;;
2416;SDS011;1219;48.736;9.330;2023-07-22T12:41:29;1.60;;;1.50;;
2416;SDS011;1219;48.736;9.330;2023-07-22T12:43:55;2.10;;;1.80;;
2416;SDS011;1219;48.736;9.330;2023-07-22T12:46:21;1.60;;;1.50;;
2416;SDS011;1219;48.736;9.330;2023-07-22T12:48:47;1.60;;;1.50;;
2416;SDS011;1219;48.736;9.330;2023-07-22T12:51:14;2.10;;;1.50;;
2416;SDS011;1219;48.736;9.330;2023-07-22T12:53:40;1.60;;;1.50;;
2416;SDS011;1219;48.736;9.330;2023-07-22T12:56:06;2.93;;;1.63;;
2416;SDS011;1219;48.736;9.330;2023-07-22T12:58:32;1.70;;;1.60;;
2416;SDS011;1219;48.736;9.330;2023-07-22T13:00:58;1.63;;;1.53;;
2416;SDS011;1219;48.736;9.330;2023-07-22T13:03:24;2.00;;;1.80;;
2416;SDS011;1219;48.736;9.330;2023-07-22T13:05:50;1.70;;;1.60;;
2416;SDS011;1219;48.736;9.330;2023-07-22T13:08:16;2.43;;;2.00;;
2416;SDS011;1219;48.736;9.330;2023-07-22T13:10:42;4.13;;;2.30;;
2416;SDS011;1219;48.736;9.330;2023-07-22T13:13:09;2.20;;;2.00;;
2416;SDS011;1219;48.736;9.330;2023-07-22T13:15:35;2.00;;;1.80;;
2416;SDS011;1219;48.736;9.330;2023-07-22T13:18:01;2.37;;;2.10;;
2416;SDS011;1219;48.736;9.330;2023-07-22T13:20:27;2.53;;;2.33;;
2416;SDS011;1219;48.736;9.330;2023-07-22T13:22:54;1.80;;;1.70;;
2416;SDS011;1219;48.736;9.330;2023-07-22T13:25:20;5.30;;;2.00;;
2416;SDS011;1219;48.736;9.330;2023-07-22T13:27:46;2.23;;;1.90;;
2416;SDS011;1219;48.736;9.330;2023-07-22T13:30:12;1.70;;;1.60;;
2416;SDS011;1219;48.736;9.330;2023-07-22T13:32:38;1.73;;;1.63;;
2416;SDS011;1219;48.736;9.330;2023-07-22T13:35:04;2.03;;;1.93;;
2416;SDS011;1219;48.736;9.330;2023-07-22T13:37:30;2.20;;;2.03;;
2416;SDS011;1219;48.736;9.330;2023-07-22T13:39:56;2.70;;;1.80;;
2416;SDS011;1219;48.736;9.330;2023-07-22T13:42:22;1.80;;;1.70;;
2416;SDS011;1219;48.736;9.330;2023-07-22T13:44:49;1.80;;;1.70;;
2416;SDS011;1219;48.736;9.330;2023-07-22T13:47:15;1.80;;;1.70;;
2416;SDS011;1219;48.736;9.330;2023-07-22T13:49:41;2.40;;;1.80;;
2416;SDS011;1219;48.736;9.330;2023-07-22T13:52:07;2.50;;;2.30;;
2416;SDS011;1219;48.736;9.330;2023-07-22T13:54:32;2.43;;;1.93;;
2416;SDS011;1219;48.736;9.330;2023-07-22T13:56:58;2.57;;;2.40;;
2416;SDS011;1219;48.736;9.330;2023-07-22T13:59:24;2.70;;;2.50;;
2416;SDS011;1219;48.736;9.330;2023-07-22T14:01:50;3.03;;;1.90;;
2416;SDS011;1219;48.736;9.330;2023-07-22T14:04:16;4.20;;;2.37;;
2416;SDS011;1219;48.736;9.330;2023-07-22T14:06:42;2.10;;;2.00;;
2416;SDS011;1219;48.736;9.330;2023-07-22T14:09:08;2.17;;;1.97;;
2416;SDS011;1219;48.736;9.330;2023-07-22T14:11:34;2.17;;;2.00;;
2416;SDS011;1219;48.736;9.330;2023-07-22T14:14:00;2.30;;;2.10;;
2416;SDS011;1219;48.736;9.330;2023-07-22T14:16:26;1.90;;;1.80;;
2416;SDS011;1219;48.736;9.330;2023-07-22T14:18:52;2.43;;;2.20;;
2416;SDS011;1219;48.736;9.330;2023-07-22T14:21:18;2.17;;;1.97;;
2416;SDS011;1219;48.736;9.330;2023-07-22T14:23:44;3.60;;;2.07;;
2416;SDS011;1219;48.736;9.330;2023-07-22T14:26:10;2.23;;;2.10;;
2416;SDS011;1219;48.736;9.330;2023-07-22T14:28:36;2.83;;;2.53;;
2416;SDS011;1219;48.736;9.330;2023-07-22T14:31:02;2.30;;;2.10;;
2416;SDS011;1219;48.736;9.330;2023-07-22T14:33:29;2.40;;;2.20;;
2416;SDS011;1219;48.736;9.330;2023-07-22T14:35:54;2.43;;;2.23;;
2416;SDS011;1219;48.736;9.330;2023-07-22T14:38:21;2.33;;;2.10;;
2416;SDS011;1219;48.736;9.330;2023-07-22T14:40:47;2.40;;;2.20;;
2416;SDS011;1219;48.736;9.330;2023-07-22T14:43:13;4.63;;;2.43;;
2416;SDS011;1219;48.736;9.330;2023-07-22T14:45:39;2.80;;;2.53;;
2416;SDS011;1219;48.736;9.330;2023-07-22T14:48:05;4.03;;;2.20;;
2416;SDS011;1219;48.736;9.330;2023-07-22T14:50:31;2.20;;;2.00;;
2416;SDS011;1219;48.736;9.330;2023-07-22T14:52:57;2.23;;;2.00;;
2416;SDS011;1219;48.736;9.330;2023-07-22T14:55:23;2.10;;;1.90;;
2416;SDS011;1219;48.736;9.330;2023-07-22T14:57:49;2.70;;;2.50;;
2416;SDS011;1219;48.736;9.330;2023-07-22T15:00:16;2.30;;;2.10;;
2416;SDS011;1219;48.736;9.330;2023-07-22T15:02:43;2.30;;;2.10;;
2416;SDS011;1219;48.736;9.330;2023-07-22T15:05:08;3.57;;;2.30;;
2416;SDS011;1219;48.736;9.330;2023-07-22T15:07:34;5.50;;;2.03;;
2416;SDS011;1219;48.736;9.330;2023-07-22T15:10:00;2.47;;;2.27;;
2416;SDS011;1219;48.736;9.330;2023-07-22T15:12:27;2.10;;;1.90;;
2416;SDS011;1219;48.736;9.330;2023-07-22T15:14:53;2.27;;;2.07;;
2416;SDS011;1219;48.736;9.330;2023-07-22T15:17:19;3.70;;;2.20;;
2416;SDS011;1219;48.736;9.330;2023-07-22T15:19:45;3.07;;;2.87;;
2416;SDS011;1219;48.736;9.330;2023-07-22T15:22:11;2.83;;;2.53;;